sensor_id;sensor_type;location;lat;lon;timestamp;pressure;altitude;pressure_sealevel;temperature;humidity
49451;BME280;35336;48.400;10.886;2023-02-28T00:00:00;96770.56;;;-1.90;65.68
49451;BME280;35336;48.400;10.886;2023-02-28T00:00:16;96772.38;;;-1.90;65.82
49451;BME280;35336;48.400;10.886;2023-02-28T00:00:31;96762.84;;;-1.92;65.82
49451;BME280;35336;48.400;10.886;2023-02-28T00:00:47;96782.38;;;-1.84;65.67
49451;BME280;35336;48.400;10.886;2023-02-28T00:01:03;96778.22;;;-1.87;65.58
49451;BME280;35336;48.400;10.886;2023-02-28T00:01:18;96775.47;;;-1.85;65.66
49451;BME280;35336;48.400;10.886;2023-02-28T00:01:33;96772.16;;;-1.87;65.51
49451;BME280;35336;48.400;10.886;2023-02-28T00:01:49;96733.75;;;-2.11;65.78
49451;BME280;35336;48.400;10.886;2023-02-28T00:02:04;96780.81;;;-1.87;66.00
49451;BME280;35336;48.400;10.886;2023-02-28T00:02:19;96752.94;;;-1.99;65.98
49451;BME280;35336;48.400;10.886;2023-02-28T00:02:38;96773.31;;;-1.92;65.92
49451;BME280;35336;48.400;10.886;2023-02-28T00:02:54;96779.28;;;-1.89;66.12
49451;BME280;35336;48.400;10.886;2023-02-28T00:03:10;96766.03;;;-1.99;66.29
49451;BME280;35336;48.400;10.886;2023-02-28T00:03:25;96770.94;;;-1.95;66.76
49451;BME280;35336;48.400;10.886;2023-02-28T00:03:40;96735.41;;;-2.10;66.64
49451;BME280;35336;48.400;10.886;2023-02-28T00:03:55;96763.16;;;-1.96;66.64
49451;BME280;35336;48.400;10.886;2023-02-28T00:04:11;96760.69;;;-1.98;66.58
49451;BME280;35336;48.400;10.886;2023-02-28T00:04:26;96785.94;;;-1.85;66.71
49451;BME280;35336;48.400;10.886;2023-02-28T00:04:42;96752.34;;;-2.03;66.55
49451;BME280;35336;48.400;10.886;2023-02-28T00:04:57;96766.63;;;-1.96;66.36
49451;BME280;35336;48.400;10.886;2023-02-28T00:05:15;96738.22;;;-2.13;66.28
49451;BME280;35336;48.400;10.886;2023-02-28T00:05:31;96755.75;;;-2.02;66.53
49451;BME280;35336;48.400;10.886;2023-02-28T00:05:46;96780.09;;;-1.89;66.40
49451;BME280;35336;48.400;10.886;2023-02-28T00:06:08;96775.19;;;-1.94;66.59
49451;BME280;35336;48.400;10.886;2023-02-28T00:06:24;96760.88;;;-2.01;66.79
49451;BME280;35336;48.400;10.886;2023-02-28T00:06:39;96760.78;;;-1.99;66.89
49451;BME280;35336;48.400;10.886;2023-02-28T00:06:54;96759.94;;;-2.00;67.09
49451;BME280;35336;48.400;10.886;2023-02-28T00:07:10;96771.63;;;-1.93;66.95
49451;BME280;35336;48.400;10.886;2023-02-28T00:07:25;96767.78;;;-2.00;67.10
49451;BME280;35336;48.400;10.886;2023-02-28T00:07:40;96769.13;;;-1.94;67.11
49451;BME280;35336;48.400;10.886;2023-02-28T00:07:56;96767.47;;;-1.95;67.10
49451;BME280;35336;48.400;10.886;2023-02-28T00:08:11;96772.03;;;-1.86;67.27
49451;BME280;35336;48.400;10.886;2023-02-28T00:08:27;96773.81;;;-1.86;67.43
49451;BME280;35336;48.400;10.886;2023-02-28T00:08:42;96752.00;;;-1.98;67.44
49451;BME280;35336;48.400;10.886;2023-02-28T00:08:57;96761.50;;;-1.97;67.43
49451;BME280;35336;48.400;10.886;2023-02-28T00:09:12;96764.03;;;-1.96;67.45
49451;BME280;35336;48.400;10.886;2023-02-28T00:09:28;96762.22;;;-1.95;67.59
49451;BME280;35336;48.400;10.886;2023-02-28T00:09:43;96776.66;;;-1.89;67.72
49451;BME280;35336;48.400;10.886;2023-02-28T00:09:58;96740.84;;;-2.13;67.80
49451;BME280;35336;48.400;10.886;2023-02-28T00:10:18;96765.91;;;-1.98;67.87
49451;BME280;35336;48.400;10.886;2023-02-28T00:10:34;96766.03;;;-1.99;67.92
49451;BME280;35336;48.400;10.886;2023-02-28T00:10:49;96768.19;;;-1.93;67.76
49451;BME280;35336;48.400;10.886;2023-02-28T00:11:07;96750.84;;;-2.07;68.02
49451;BME280;35336;48.400;10.886;2023-02-28T00:11:22;96757.56;;;-2.03;68.01
49451;BME280;35336;48.400;10.886;2023-02-28T00:11:38;96779.38;;;-1.91;67.76
49451;BME280;35336;48.400;10.886;2023-02-28T00:11:53;96729.66;;;-2.15;67.80
49451;BME280;35336;48.400;10.886;2023-02-28T00:12:08;96779.28;;;-1.89;67.95
49451;BME280;35336;48.400;10.886;2023-02-28T00:12:24;96759.94;;;-2.00;68.10
49451;BME280;35336;48.400;10.886;2023-02-28T00:12:40;96778.03;;;-1.97;68.11
49451;BME280;35336;48.400;10.886;2023-02-28T00:12:59;96768.00;;;-2.03;68.18
49451;BME280;35336;48.400;10.886;2023-02-28T00:13:15;96766.03;;;-1.99;68.46
49451;BME280;35336;48.400;10.886;2023-02-28T00:13:31;96762.78;;;-2.03;68.36
49451;BME280;35336;48.400;10.886;2023-02-28T00:13:47;96765.91;;;-1.98;68.13
49451;BME280;35336;48.400;10.886;2023-02-28T00:14:02;96733.75;;;-2.24;68.25
49451;BME280;35336;48.400;10.886;2023-02-28T00:14:17;96751.28;;;-2.13;68.33
49451;BME280;35336;48.400;10.886;2023-02-28T00:14:33;96766.53;;;-2.07;68.24
49451;BME280;35336;48.400;10.886;2023-02-28T00:14:49;96769.88;;;-2.05;68.67
49451;BME280;35336;48.400;10.886;2023-02-28T00:15:09;96766.97;;;-2.13;68.50
49451;BME280;35336;48.400;10.886;2023-02-28T00:15:24;96725.00;;;-2.36;68.60
49451;BME280;35336;48.400;10.886;2023-02-28T00:15:40;96763.63;;;-2.15;68.79
49451;BME280;35336;48.400;10.886;2023-02-28T00:16:11;96762.06;;;-2.18;68.77
49451;BME280;35336;48.400;10.886;2023-02-28T00:16:26;96751.09;;;-2.23;68.99
49451;BME280;35336;48.400;10.886;2023-02-28T00:16:42;96768.75;;;-2.14;69.14
49451;BME280;35336;48.400;10.886;2023-02-28T00:16:57;96739.53;;;-2.32;69.64
49451;BME280;35336;48.400;10.886;2023-02-28T00:17:12;96761.88;;;-2.15;69.32
49451;BME280;35336;48.400;10.886;2023-02-28T00:17:28;96754.78;;;-2.26;69.48
49451;BME280;35336;48.400;10.886;2023-02-28T00:17:43;96766.97;;;-2.13;69.52
49451;BME280;35336;48.400;10.886;2023-02-28T00:17:59;96757.16;;;-2.22;69.57
49451;BME280;35336;48.400;10.886;2023-02-28T00:18:14;96765.28;;;-2.14;69.45
49451;BME280;35336;48.400;10.886;2023-02-28T00:18:30;96766.97;;;-2.13;69.45
49451;BME280;35336;48.400;10.886;2023-02-28T00:18:45;96772.00;;;-2.10;69.69
49451;BME280;35336;48.400;10.886;2023-02-28T00:19:00;96765.19;;;-2.13;69.50
49451;BME280;35336;48.400;10.886;2023-02-28T00:19:16;96772.69;;;-2.08;69.56
49451;BME280;35336;48.400;10.886;2023-02-28T00:19:31;96769.38;;;-2.10;69.47
49451;BME280;35336;48.400;10.886;2023-02-28T00:19:48;96767.59;;;-2.10;69.45
49451;BME280;35336;48.400;10.886;2023-02-28T00:20:05;96761.75;;;-2.13;69.65
49451;BME280;35336;48.400;10.886;2023-02-28T00:20:20;96747.31;;;-2.19;69.75
49451;BME280;35336;48.400;10.886;2023-02-28T00:20:36;96757.34;;;-2.13;69.59
49451;BME280;35336;48.400;10.886;2023-02-28T00:20:51;96753.16;;;-2.15;69.25
49451;BME280;35336;48.400;10.886;2023-02-28T00:21:07;96765.09;;;-2.11;69.24
49451;BME280;35336;48.400;10.886;2023-02-28T00:21:22;96757.97;;;-2.09;69.22
49451;BME280;35336;48.400;10.886;2023-02-28T00:21:37;96752.47;;;-2.17;69.05
49451;BME280;35336;48.400;10.886;2023-02-28T00:21:53;96755.28;;;-2.20;69.13
49451;BME280;35336;48.400;10.886;2023-02-28T00:22:08;96740.22;;;-2.30;69.01
49451;BME280;35336;48.400;10.886;2023-02-28T00:22:23;96762.69;;;-2.14;69.32
49451;BME280;35336;48.400;10.886;2023-02-28T00:22:41;96733.44;;;-2.32;69.39
49451;BME280;35336;48.400;10.886;2023-02-28T00:22:56;96751.84;;;-2.21;69.48
49451;BME280;35336;48.400;10.886;2023-02-28T00:23:11;96761.94;;;-2.16;69.54
49451;BME280;35336;48.400;10.886;2023-02-28T00:23:27;96746.09;;;-2.26;69.42
49451;BME280;35336;48.400;10.886;2023-02-28T00:23:43;96770.53;;;-2.14;69.65
49451;BME280;35336;48.400;10.886;2023-02-28T00:23:58;96744.31;;;-2.26;69.41
49451;BME280;35336;48.400;10.886;2023-02-28T00:24:13;96752.97;;;-2.25;69.45
49451;BME280;35336;48.400;10.886;2023-02-28T00:24:29;96723.56;;;-2.40;69.57
49451;BME280;35336;48.400;10.886;2023-02-28T00:24:44;96761.25;;;-2.18;69.67
49451;BME280;35336;48.400;10.886;2023-02-28T00:25:00;96766.66;;;-2.21;69.65
49451;BME280;35336;48.400;10.886;2023-02-28T00:25:21;96722.81;;;-2.42;69.82
49451;BME280;35336;48.400;10.886;2023-02-28T00:25:37;96760.50;;;-2.20;69.53
49451;BME280;35336;48.400;10.886;2023-02-28T00:25:53;96749.44;;;-2.24;69.73
49451;BME280;35336;48.400;10.886;2023-02-28T00:26:08;96760.50;;;-2.20;69.67
49451;BME280;35336;48.400;10.886;2023-02-28T00:26:27;96762.28;;;-2.21;69.81
49451;BME280;35336;48.400;10.886;2023-02-28T00:26:42;96762.28;;;-2.21;69.68
49451;BME280;35336;48.400;10.886;2023-02-28T00:26:57;96748.81;;;-2.28;69.80
49451;BME280;35336;48.400;10.886;2023-02-28T00:27:14;96761.44;;;-2.21;69.90
49451;BME280;35336;48.400;10.886;2023-02-28T00:27:30;96750.69;;;-2.30;70.18
49451;BME280;35336;48.400;10.886;2023-02-28T00:27:46;96737.22;;;-2.36;70.36
49451;BME280;35336;48.400;10.886;2023-02-28T00:28:01;96760.00;;;-2.26;70.25
49451;BME280;35336;48.400;10.886;2023-02-28T00:28:17;96759.69;;;-2.21;70.34
49451;BME280;35336;48.400;10.886;2023-02-28T00:28:32;96760.50;;;-2.20;70.24
49451;BME280;35336;48.400;10.886;2023-02-28T00:28:47;96763.94;;;-2.20;69.70
49451;BME280;35336;48.400;10.886;2023-02-28T00:29:03;96761.56;;;-2.23;70.10
49451;BME280;35336;48.400;10.886;2023-02-28T00:29:18;96760.50;;;-2.20;70.20
49451;BME280;35336;48.400;10.886;2023-02-28T00:29:33;96763.00;;;-2.19;70.50
49451;BME280;35336;48.400;10.886;2023-02-28T00:29:49;96753.72;;;-2.23;70.62
49451;BME280;35336;48.400;10.886;2023-02-28T00:30:06;96763.00;;;-2.19;69.89
49451;BME280;35336;48.400;10.886;2023-02-28T00:30:22;96736.38;;;-2.37;69.65
49451;BME280;35336;48.400;10.886;2023-02-28T00:30:38;96769.78;;;-2.16;69.87
49451;BME280;35336;48.400;10.886;2023-02-28T00:30:53;96757.69;;;-2.17;69.85
49451;BME280;35336;48.400;10.886;2023-02-28T00:31:09;96728.78;;;-2.40;69.95
49451;BME280;35336;48.400;10.886;2023-02-28T00:31:24;96758.50;;;-2.17;70.24
49451;BME280;35336;48.400;10.886;2023-02-28T00:31:39;96762.91;;;-2.17;70.23
49451;BME280;35336;48.400;10.886;2023-02-28T00:31:55;96756.94;;;-2.19;70.13
49451;BME280;35336;48.400;10.886;2023-02-28T00:32:10;96739.72;;;-2.35;70.36
49451;BME280;35336;48.400;10.886;2023-02-28T00:32:25;96751.94;;;-2.22;70.22
49451;BME280;35336;48.400;10.886;2023-02-28T00:32:41;96765.53;;;-2.17;70.27
49451;BME280;35336;48.400;10.886;2023-02-28T00:32:56;96765.53;;;-2.17;70.05
49451;BME280;35336;48.400;10.886;2023-02-28T00:33:12;96759.56;;;-2.19;69.89
49451;BME280;35336;48.400;10.886;2023-02-28T00:33:28;96762.78;;;-2.16;69.95
49451;BME280;35336;48.400;10.886;2023-02-28T00:33:43;96756.94;;;-2.19;69.93
49451;BME280;35336;48.400;10.886;2023-02-28T00:33:59;96763.00;;;-2.19;70.00
49451;BME280;35336;48.400;10.886;2023-02-28T00:34:14;96763.84;;;-2.18;70.11
49451;BME280;35336;48.400;10.886;2023-02-28T00:34:29;96753.84;;;-2.25;69.96
49451;BME280;35336;48.400;10.886;2023-02-28T00:34:45;96757.38;;;-2.26;70.06
49451;BME280;35336;48.400;10.886;2023-02-28T00:35:00;96745.38;;;-2.28;70.12
49451;BME280;35336;48.400;10.886;2023-02-28T00:35:17;96747.31;;;-2.19;70.24
49451;BME280;35336;48.400;10.886;2023-02-28T00:35:33;96748.50;;;-2.23;69.70
49451;BME280;35336;48.400;10.886;2023-02-28T00:35:48;96765.28;;;-2.14;69.80
49451;BME280;35336;48.400;10.886;2023-02-28T00:36:06;96769.78;;;-2.16;69.93
49451;BME280;35336;48.400;10.886;2023-02-28T00:36:22;96767.16;;;-2.16;69.91
49451;BME280;35336;48.400;10.886;2023-02-28T00:36:37;96765.41;;;-2.16;70.06
49451;BME280;35336;48.400;10.886;2023-02-28T00:36:53;96762.78;;;-2.16;69.80
49451;BME280;35336;48.400;10.886;2023-02-28T00:37:09;96754.66;;;-2.24;69.70
49451;BME280;35336;48.400;10.886;2023-02-28T00:37:25;96768.03;;;-2.16;69.99
49451;BME280;35336;48.400;10.886;2023-02-28T00:37:41;96746.94;;;-2.26;69.62
49451;BME280;35336;48.400;10.886;2023-02-28T00:37:56;96756.09;;;-2.20;69.74
49451;BME280;35336;48.400;10.886;2023-02-28T00:38:13;96751.31;;;-2.26;69.83
49451;BME280;35336;48.400;10.886;2023-02-28T00:38:29;96765.53;;;-2.17;69.91
49451;BME280;35336;48.400;10.886;2023-02-28T00:38:44;96763.13;;;-2.20;69.76
49451;BME280;35336;48.400;10.886;2023-02-28T00:38:59;96747.97;;;-2.28;69.86
49451;BME280;35336;48.400;10.886;2023-02-28T00:39:15;96764.91;;;-2.21;69.58
49451;BME280;35336;48.400;10.886;2023-02-28T00:39:30;96761.44;;;-2.21;69.94
49451;BME280;35336;48.400;10.886;2023-02-28T00:39:46;96758.81;;;-2.21;70.33
49451;BME280;35336;48.400;10.886;2023-02-28T00:40:02;96752.34;;;-2.29;70.42
49451;BME280;35336;48.400;10.886;2023-02-28T00:40:18;96758.00;;;-2.22;70.10
49451;BME280;35336;48.400;10.886;2023-02-28T00:40:33;96733.88;;;-2.38;70.17
49451;BME280;35336;48.400;10.886;2023-02-28T00:40:48;96749.97;;;-2.32;70.22
49451;BME280;35336;48.400;10.886;2023-02-28T00:41:04;96762.38;;;-2.22;70.10
49451;BME280;35336;48.400;10.886;2023-02-28T00:41:19;96759.06;;;-2.25;70.23
49451;BME280;35336;48.400;10.886;2023-02-28T00:41:35;96761.56;;;-2.23;70.31
49451;BME280;35336;48.400;10.886;2023-02-28T00:41:50;96747.13;;;-2.29;70.22
49451;BME280;35336;48.400;10.886;2023-02-28T00:42:07;96758.00;;;-2.22;70.11
49451;BME280;35336;48.400;10.886;2023-02-28T00:42:23;96762.19;;;-2.19;70.15
49451;BME280;35336;48.400;10.886;2023-02-28T00:42:39;96730.44;;;-2.39;69.90
49451;BME280;35336;48.400;10.886;2023-02-28T00:42:54;96750.25;;;-2.24;69.84
49451;BME280;35336;48.400;10.886;2023-02-28T00:43:10;96754.66;;;-2.24;69.96
49451;BME280;35336;48.400;10.886;2023-02-28T00:43:25;96718.03;;;-2.48;69.96
49451;BME280;35336;48.400;10.886;2023-02-28T00:43:40;96734.69;;;-2.38;70.05
49451;BME280;35336;48.400;10.886;2023-02-28T00:43:56;96748.19;;;-2.31;70.07
49451;BME280;35336;48.400;10.886;2023-02-28T00:44:11;96762.50;;;-2.24;70.04
49451;BME280;35336;48.400;10.886;2023-02-28T00:44:26;96756.53;;;-2.26;70.36
49451;BME280;35336;48.400;10.886;2023-02-28T00:44:42;96731.59;;;-2.43;70.32
49451;BME280;35336;48.400;10.886;2023-02-28T00:44:57;96758.31;;;-2.27;70.62
49451;BME280;35336;48.400;10.886;2023-02-28T00:45:12;96730.66;;;-2.42;70.62
49451;BME280;35336;48.400;10.886;2023-02-28T00:45:28;96739.00;;;-2.37;70.55
49451;BME280;35336;48.400;10.886;2023-02-28T00:45:43;96728.97;;;-2.43;70.63
49451;BME280;35336;48.400;10.886;2023-02-28T00:45:58;96747.13;;;-2.29;70.79
49451;BME280;35336;48.400;10.886;2023-02-28T00:46:13;96736.38;;;-2.37;70.82
49451;BME280;35336;48.400;10.886;2023-02-28T00:46:29;96760.00;;;-2.26;70.95
49451;BME280;35336;48.400;10.886;2023-02-28T00:46:44;96740.66;;;-2.36;71.09
49451;BME280;35336;48.400;10.886;2023-02-28T00:47:00;96754.66;;;-2.24;71.13
49451;BME280;35336;48.400;10.886;2023-02-28T00:47:15;96738.56;;;-2.31;70.68
49451;BME280;35336;48.400;10.886;2023-02-28T00:47:31;96713.31;;;-2.43;70.45
49451;BME280;35336;48.400;10.886;2023-02-28T00:47:47;96755.16;;;-2.19;70.17
49451;BME280;35336;48.400;10.886;2023-02-28T00:48:02;96725.94;;;-2.37;69.92
49451;BME280;35336;48.400;10.886;2023-02-28T00:48:18;96756.94;;;-2.19;69.87
49451;BME280;35336;48.400;10.886;2023-02-28T00:48:33;96756.00;;;-2.18;69.94
49451;BME280;35336;48.400;10.886;2023-02-28T00:48:48;96755.38;;;-2.22;69.70
49451;BME280;35336;48.400;10.886;2023-02-28T00:49:04;96746.94;;;-2.26;69.51
49451;BME280;35336;48.400;10.886;2023-02-28T00:49:19;96735.88;;;-2.29;69.49
49451;BME280;35336;48.400;10.886;2023-02-28T00:49:35;96756.00;;;-2.18;69.74
49451;BME280;35336;48.400;10.886;2023-02-28T00:49:50;96756.00;;;-2.18;69.74
49451;BME280;35336;48.400;10.886;2023-02-28T00:50:06;96741.91;;;-2.29;69.75
49451;BME280;35336;48.400;10.886;2023-02-28T00:50:21;96740.22;;;-2.30;69.91
49451;BME280;35336;48.400;10.886;2023-02-28T00:50:37;96721.88;;;-2.41;69.88
49451;BME280;35336;48.400;10.886;2023-02-28T00:50:52;96759.69;;;-2.21;69.99
49451;BME280;35336;48.400;10.886;2023-02-28T00:51:07;96758.00;;;-2.22;69.93
49451;BME280;35336;48.400;10.886;2023-02-28T00:51:23;96759.69;;;-2.21;70.02
49451;BME280;35336;48.400;10.886;2023-02-28T00:51:38;96735.66;;;-2.39;70.04
49451;BME280;35336;48.400;10.886;2023-02-28T00:51:54;96739.63;;;-2.33;69.93
49451;BME280;35336;48.400;10.886;2023-02-28T00:52:10;96750.91;;;-2.33;70.09
49451;BME280;35336;48.400;10.886;2023-02-28T00:52:25;96763.53;;;-2.27;70.26
49451;BME280;35336;48.400;10.886;2023-02-28T00:52:41;96753.72;;;-2.36;69.91
49451;BME280;35336;48.400;10.886;2023-02-28T00:52:56;96725.63;;;-2.45;70.06
49451;BME280;35336;48.400;10.886;2023-02-28T00:53:11;96748.81;;;-2.28;70.02
49451;BME280;35336;48.400;10.886;2023-02-28T00:53:27;96754.22;;;-2.31;70.11
49451;BME280;35336;48.400;10.886;2023-02-28T00:53:43;96762.81;;;-2.29;69.99
49451;BME280;35336;48.400;10.886;2023-02-28T00:53:58;96750.28;;;-2.36;70.00
49451;BME280;35336;48.400;10.886;2023-02-28T00:54:14;96739.84;;;-2.49;70.21
49451;BME280;35336;48.400;10.886;2023-02-28T00:54:29;96747.13;;;-2.42;70.18
49451;BME280;35336;48.400;10.886;2023-02-28T00:54:44;96759.69;;;-2.34;70.18
49451;BME280;35336;48.400;10.886;2023-02-28T00:54:59;96754.47;;;-2.34;70.34
49451;BME280;35336;48.400;10.886;2023-02-28T00:55:15;96747.75;;;-2.38;70.56
49451;BME280;35336;48.400;10.886;2023-02-28T00:55:30;96757.81;;;-2.32;70.38
49451;BME280;35336;48.400;10.886;2023-02-28T00:55:46;96746.31;;;-2.42;70.07
49451;BME280;35336;48.400;10.886;2023-02-28T00:56:01;96748.00;;;-2.41;70.23
49451;BME280;35336;48.400;10.886;2023-02-28T00:56:16;96739.41;;;-2.43;70.47
49451;BME280;35336;48.400;10.886;2023-02-28T00:56:32;96754.34;;;-2.32;70.41
49451;BME280;35336;48.400;10.886;2023-02-28T00:56:47;96732.00;;;-2.49;70.69
49451;BME280;35336;48.400;10.886;2023-02-28T00:57:03;96735.88;;;-2.42;70.58
49451;BME280;35336;48.400;10.886;2023-02-28T00:57:18;96719.38;;;-2.56;70.30
49451;BME280;35336;48.400;10.886;2023-02-28T00:57:33;96733.47;;;-2.45;70.31
49451;BME280;35336;48.400;10.886;2023-02-28T00:57:49;96752.16;;;-2.38;70.24
49451;BME280;35336;48.400;10.886;2023-02-28T00:58:04;96760.31;;;-2.30;70.15
49451;BME280;35336;48.400;10.886;2023-02-28T00:58:19;96756.84;;;-2.31;70.15
49451;BME280;35336;48.400;10.886;2023-02-28T00:58:35;96729.19;;;-2.46;70.19
49451;BME280;35336;48.400;10.886;2023-02-28T00:58:50;96757.38;;;-2.26;70.22
49451;BME280;35336;48.400;10.886;2023-02-28T00:59:05;96755.72;;;-2.27;70.46
49451;BME280;35336;48.400;10.886;2023-02-28T00:59:21;96741.53;;;-2.35;70.54
49451;BME280;35336;48.400;10.886;2023-02-28T00:59:36;96746.75;;;-2.35;70.48
49451;BME280;35336;48.400;10.886;2023-02-28T00:59:52;96761.03;;;-2.28;70.42
49451;BME280;35336;48.400;10.886;2023-02-28T01:00:08;96740.91;;;-2.39;70.27
49451;BME280;35336;48.400;10.886;2023-02-28T01:00:23;96741.84;;;-2.40;70.25
49451;BME280;35336;48.400;10.886;2023-02-28T01:00:38;96757.81;;;-2.32;70.28
49451;BME280;35336;48.400;10.886;2023-02-28T01:00:54;96753.72;;;-2.36;70.30
49451;BME280;35336;48.400;10.886;2023-02-28T01:01:09;96741.91;;;-2.42;70.27
49451;BME280;35336;48.400;10.886;2023-02-28T01:01:25;96736.41;;;-2.50;70.53
49451;BME280;35336;48.400;10.886;2023-02-28T01:01:40;96759.06;;;-2.37;70.17
49451;BME280;35336;48.400;10.886;2023-02-28T01:01:56;96759.19;;;-2.39;70.40
49451;BME280;35336;48.400;10.886;2023-02-28T01:02:11;96737.03;;;-2.46;70.52
49451;BME280;35336;48.400;10.886;2023-02-28T01:02:26;96723.25;;;-2.61;70.54
49451;BME280;35336;48.400;10.886;2023-02-28T01:02:42;96753.94;;;-2.39;70.77
49451;BME280;35336;48.400;10.886;2023-02-28T01:02:57;96754.16;;;-2.42;70.54
49451;BME280;35336;48.400;10.886;2023-02-28T01:03:12;96755.94;;;-2.43;70.58
49451;BME280;35336;48.400;10.886;2023-02-28T01:03:28;96747.69;;;-2.49;70.65
49451;BME280;35336;48.400;10.886;2023-02-28T01:03:43;96745.25;;;-2.52;70.67
49451;BME280;35336;48.400;10.886;2023-02-28T01:03:58;96754.25;;;-2.44;70.72
49451;BME280;35336;48.400;10.886;2023-02-28T01:04:14;96759.38;;;-2.42;70.58
49451;BME280;35336;48.400;10.886;2023-02-28T01:04:30;96758.56;;;-2.43;70.72
49451;BME280;35336;48.400;10.886;2023-02-28T01:04:45;96740.91;;;-2.52;70.67
49451;BME280;35336;48.400;10.886;2023-02-28T01:05:01;96749.88;;;-2.43;70.78
49451;BME280;35336;48.400;10.886;2023-02-28T01:05:16;96738.41;;;-2.53;70.79
49451;BME280;35336;48.400;10.886;2023-02-28T01:05:32;96748.94;;;-2.42;70.82
49451;BME280;35336;48.400;10.886;2023-02-28T01:05:47;96758.00;;;-2.35;70.42
49451;BME280;35336;48.400;10.886;2023-02-28T01:06:02;96749.34;;;-2.35;70.35
49451;BME280;35336;48.400;10.886;2023-02-28T01:06:18;96751.34;;;-2.39;70.80
49451;BME280;35336;48.400;10.886;2023-02-28T01:06:33;96752.06;;;-2.37;70.46
49451;BME280;35336;48.400;10.886;2023-02-28T01:06:49;96736.91;;;-2.45;70.69
49451;BME280;35336;48.400;10.886;2023-02-28T01:07:04;96751.09;;;-2.36;70.71
49451;BME280;35336;48.400;10.886;2023-02-28T01:07:20;96744.84;;;-2.33;70.86
49451;BME280;35336;48.400;10.886;2023-02-28T01:07:35;96728.66;;;-2.51;70.67
49451;BME280;35336;48.400;10.886;2023-02-28T01:07:50;96745.38;;;-2.41;70.61
49451;BME280;35336;48.400;10.886;2023-02-28T01:08:05;96749.44;;;-2.37;70.49
49451;BME280;35336;48.400;10.886;2023-02-28T01:08:21;96752.91;;;-2.36;70.62
49451;BME280;35336;48.400;10.886;2023-02-28T01:08:37;96734.41;;;-2.46;70.56
49451;BME280;35336;48.400;10.886;2023-02-28T01:08:52;96727.22;;;-2.56;70.67
49451;BME280;35336;48.400;10.886;2023-02-28T01:09:08;96752.28;;;-2.40;70.68
49451;BME280;35336;48.400;10.886;2023-02-28T01:09:23;96740.34;;;-2.44;70.85
49451;BME280;35336;48.400;10.886;2023-02-28T01:09:38;96752.28;;;-2.40;70.86
49451;BME280;35336;48.400;10.886;2023-02-28T01:09:54;96741.09;;;-2.42;70.72
49451;BME280;35336;48.400;10.886;2023-02-28T01:10:10;96750.59;;;-2.41;70.73
49451;BME280;35336;48.400;10.886;2023-02-28T01:10:27;96749.88;;;-2.43;70.78
49451;BME280;35336;48.400;10.886;2023-02-28T01:10:42;96748.72;;;-2.39;70.69
49451;BME280;35336;48.400;10.886;2023-02-28T01:11:07;96755.50;;;-2.36;70.58
49451;BME280;35336;48.400;10.886;2023-02-28T01:11:22;96714.66;;;-2.63;70.43
49451;BME280;35336;48.400;10.886;2023-02-28T01:11:38;96750.59;;;-2.41;70.39
49451;BME280;35336;48.400;10.886;2023-02-28T01:11:53;96751.66;;;-2.44;70.39
49451;BME280;35336;48.400;10.886;2023-02-28T01:12:08;96744.25;;;-2.50;70.16
49451;BME280;35336;48.400;10.886;2023-02-28T01:12:24;96751.53;;;-2.42;70.11
49451;BME280;35336;48.400;10.886;2023-02-28T01:12:39;96715.53;;;-2.63;70.48
49451;BME280;35336;48.400;10.886;2023-02-28T01:12:54;96743.19;;;-2.47;70.04
49451;BME280;35336;48.400;10.886;2023-02-28T01:13:11;96755.09;;;-2.43;70.18
49451;BME280;35336;48.400;10.886;2023-02-28T01:13:26;96754.97;;;-2.42;70.02
49451;BME280;35336;48.400;10.886;2023-02-28T01:13:43;96721.78;;;-2.65;70.15
49451;BME280;35336;48.400;10.886;2023-02-28T01:13:59;96740.91;;;-2.52;70.45
49451;BME280;35336;48.400;10.886;2023-02-28T01:14:16;96741.72;;;-2.51;70.39
49451;BME280;35336;48.400;10.886;2023-02-28T01:14:31;96740.91;;;-2.52;70.51
49451;BME280;35336;48.400;10.886;2023-02-28T01:14:47;96757.59;;;-2.42;70.83
49451;BME280;35336;48.400;10.886;2023-02-28T01:15:02;96737.44;;;-2.52;70.59
49451;BME280;35336;48.400;10.886;2023-02-28T01:15:18;96737.44;;;-2.52;70.84
49451;BME280;35336;48.400;10.886;2023-02-28T01:15:33;96740.78;;;-2.50;70.55
49451;BME280;35336;48.400;10.886;2023-02-28T01:15:52;96715.84;;;-2.67;70.67
49451;BME280;35336;48.400;10.886;2023-02-28T01:16:08;96752.47;;;-2.43;70.67
49451;BME280;35336;48.400;10.886;2023-02-28T01:16:24;96752.47;;;-2.43;70.64
49451;BME280;35336;48.400;10.886;2023-02-28T01:16:39;96751.53;;;-2.42;70.77
49451;BME280;35336;48.400;10.886;2023-02-28T01:16:54;96743.19;;;-2.47;70.59
49451;BME280;35336;48.400;10.886;2023-02-28T01:17:10;96751.53;;;-2.42;70.60
49451;BME280;35336;48.400;10.886;2023-02-28T01:17:25;96742.34;;;-2.48;70.49
49451;BME280;35336;48.400;10.886;2023-02-28T01:17:40;96755.59;;;-2.38;70.60
49451;BME280;35336;48.400;10.886;2023-02-28T01:17:56;96762.41;;;-2.35;70.42
49451;BME280;35336;48.400;10.886;2023-02-28T01:18:11;96742.03;;;-2.43;70.40
49451;BME280;35336;48.400;10.886;2023-02-28T01:18:26;96741.09;;;-2.42;70.37
49451;BME280;35336;48.400;10.886;2023-02-28T01:18:42;96753.72;;;-2.36;70.18
49451;BME280;35336;48.400;10.886;2023-02-28T01:18:58;96741.09;;;-2.42;70.15
49451;BME280;35336;48.400;10.886;2023-02-28T01:19:13;96747.13;;;-2.42;70.20
49451;BME280;35336;48.400;10.886;2023-02-28T01:19:28;96739.41;;;-2.43;70.16
49451;BME280;35336;48.400;10.886;2023-02-28T01:19:44;96759.88;;;-2.37;70.08
49451;BME280;35336;48.400;10.886;2023-02-28T01:19:59;96757.28;;;-2.37;70.14
49451;BME280;35336;48.400;10.886;2023-02-28T01:20:14;96738.78;;;-2.47;70.16
49451;BME280;35336;48.400;10.886;2023-02-28T01:20:30;96759.06;;;-2.37;70.33
49451;BME280;35336;48.400;10.886;2023-02-28T01:20:45;96741.53;;;-2.48;70.34
49451;BME280;35336;48.400;10.886;2023-02-28T01:21:12;96742.66;;;-2.40;70.12
49451;BME280;35336;48.400;10.886;2023-02-28T01:21:27;96737.53;;;-2.41;70.07
49451;BME280;35336;48.400;10.886;2023-02-28T01:21:43;96749.13;;;-2.32;70.07
49451;BME280;35336;48.400;10.886;2023-02-28T01:22:01;96739.09;;;-2.38;70.20
49451;BME280;35336;48.400;10.886;2023-02-28T01:22:17;96731.59;;;-2.43;70.16